茨城空港(百里飛行場)の過去48時間の天気

茨城空港(百里飛行場) (Hyakuri)

現在時刻: 1/23 12:28 JST (1/23 03:28 UTC) 以下の時間は現地時間です。

過去48時間のMETAR気象情報
時間 風向 風速(m/s) 視程 気温(℃) 湿度(%) 気圧(hPa) 天気現象
23 12:16 南南西 2 5000m 7 87 1019 弱い雨 もや
23 12:00 南南西 3 4000m 6 93 1020 弱い雨 もや
23 11:35 南南西 3 4000m 7 87 1020 弱い雨 もや
23 11:00 不定 2 6000m 7 81 1022 弱い雨
23 10:00 不定 1 7000m 6 81 1023 弱い雨
23 09:00 不定 1 10km以上 5 81 1023 弱い雨
23 08:46 不定 1 10km以上 5 81 1023 弱い雨
23 08:00 2 10km以上 4 87 1023
23 07:00 不定 1 10km以上 3 87 1023
23 06:00 南東 1 10km以上 3 87 1022
23 05:00 不定 1 10km以上 3 87 1022
23 04:00 南西 1 10km以上 2 87 1022
23 03:00 静穏 0 10km以上 3 81 1023
23 02:00 1 10km以上 3 81 1023
23 01:00 北北東 2 10km以上 3 81 1024
23 00:00 不定 1 10km以上 3 81 1024
22 23:00 不定 1 10km以上 3 87 1024
22 22:00 南西 1 10km以上 3 81 1024
22 21:00 西 1 10km以上 4 75 1025
22 20:00 北西 2 10km以上 5 65 1025
22 19:00 北北西 3 10km以上 5 65 1025
22 18:00 2 10km以上 5 70 1025
22 17:00 3 10km以上 5 75 1025
22 16:00 3 10km以上 5 81 1025
22 15:33 北北東 4 10km以上 5 81 1026
22 15:00 3 10km以上 5 75 1026 弱い雨
22 14:00 2 10km以上 7 49 1026 弱い雨
22 13:00 北北西 3 10km以上 6 49 1027 弱い雨
22 12:49 北北西 3 10km以上 6 49 1027 弱い雨
22 12:37 北北西 3 10km以上 6 49 1027
22 12:00 3 10km以上 6 49 1028 弱い雨
22 11:00 北北西 3 10km以上 5 48 1029 弱い雨
22 10:42 北北西 3 10km以上 5 48 1029 弱い雨
22 10:25 2 10km以上 5 48 1030
22 10:00 北北西 2 10km以上 4 52 1030 弱い雨
22 09:00 2 10km以上 2 60 1030
22 08:00 北北西 2 10km以上 1 64 1030
22 07:00 北北東 2 10km以上 -1 74 1029
22 06:10 1 10km以上 -2 69 1029
22 06:00 2 10km以上 -3 74 1029
22 05:00 北北西 2 10km以上 -3 74 1028
22 04:00 2 10km以上 -2 69 1028
22 03:00 2 10km以上 -3 74 1028
22 02:00 2 10km以上 -2 69 1028
22 01:00 1 10km以上 -5 86 1027
22 00:00 不定 1 10km以上 -3 68 1028
21 23:00 静穏 0 10km以上 -2 69 1027
21 22:00 東南東 1 10km以上 0 59 1026
21 21:00 南南東 2 10km以上 1 55 1026
21 20:00 不定 1 10km以上 3 44 1025
21 19:00 北北西 2 10km以上 3 44 1024
21 18:00 4 10km以上 3 44 1023
21 17:00 5 10km以上 7 31 1022
21 16:00 5 10km以上 9 27 1021
21 15:00 北北西 3 10km以上 10 30 1020
21 14:00 2 10km以上 10 30 1019
21 13:00 4 10km以上 10 32 1019
RJAH 230316Z 21004KT 170V240 5000 -RA BR FEW015 SCT050 OVC080 07/05 Q1019 RMK 1SC015 3SC050 8AS080 A3011
RJAH 230300Z 21006KT 4000 -RA BR FEW015 SCT050 OVC080 06/05 Q1020
RJAH 230235Z 20005KT 4000 -RA BR FEW020 OVC080 07/05 Q1020 RMK 1SC020 8AS080 A3014 VIS S-SW 3000M
RJAH 230200Z VRB03KT 6000 -RA FEW020 OVC080 07/04 Q1022
RJAH 230100Z VRB01KT 7000 -RA FEW020 OVC070 06/03 Q1023
RJAH 230000Z VRB02KT 9999 -RA FEW020 OVC080 05/02 Q1023
RJAH 222346Z VRB02KT 9999 -RA FEW020 BKN080 05/02 Q1023 RMK 1CU020 7AC080 A3022 VIS SW 5KM
RJAH 222300Z 19003KT 9999 FEW020 BKN100 04/02 Q1023
RJAH 222200Z VRB02KT 9999 FEW020 BKN120 03/01 Q1023
RJAH 222100Z 14002KT 9999 FEW020 BKN160 03/01 Q1022
RJAH 222000Z VRB02KT 9999 FEW020 BKN180 03/01 Q1022
RJAH 221900Z 22002KT 9999 FEW020 BKN180 02/M00 Q1022
RJAH 221800Z 00000KT 9999 FEW020 BKN180 03/00 Q1023
RJAH 221700Z 35001KT 9999 FEW020 SCT120 BKN180 03/00 Q1023
RJAH 221600Z 03003KT 360V070 9999 FEW020 BKN130 BKN180 03/M00 Q1024
RJAH 221500Z VRB02KT 9999 FEW020 BKN150 BKN180 03/00 Q1024
RJAH 221400Z VRB01KT 9999 FEW020 BKN130 BKN/// 03/01 Q1024
RJAH 221300Z 22002KT 9999 FEW020 BKN120 BKN/// 03/M00 Q1024
RJAH 221200Z 28002KT 9999 FEW020 SCT040 BKN120 04/00 Q1025
RJAH 221100Z 32004KT 9999 FEW020 BKN040 BKN120 05/M01 Q1025
RJAH 221000Z 34005KT 310V010 9999 FEW020 BKN025 BKN040 05/M01 Q1025
RJAH 220900Z 35003KT 9999 FEW020 SCT025 BKN030 05/00 Q1025
RJAH 220800Z 01005KT 9999 FEW025 BKN030 BKN040 05/01 Q1025
RJAH 220700Z 01006KT 9999 FEW025 BKN030 BKN040 05/02 Q1025
RJAH 220633Z 02007KT 9999 FEW015 BKN030 05/02 Q1026 RMK 1CU015 5CU030 A3030
RJAH 220600Z 35005KT 320V020 9999 -RA FEW015 SCT025 BKN030 05/01 Q1026
RJAH 220500Z 35004KT 320V020 9999 -RA FEW025 SCT030 BKN040 07/M03 Q1026
RJAH 220400Z 34005KT 9999 -RA FEW025 SCT030 BKN040 06/M04 Q1027
RJAH 220349Z 34006KT 9999 -RA FEW025 BKN040 06/M04 Q1027 RMK 1CU025 7SC040 A3034
RJAH 220337Z 34005KT 9999 FEW025 BKN040 06/M04 Q1027 RMK 1CU025 7SC040 A3035
RJAH 220300Z 35005KT 320V020 9999 -RA FEW025 BKN040 06/M04 Q1028
RJAH 220200Z 34005KT 9999 -RA FEW025 BKN040 05/M05 Q1029
RJAH 220142Z 34005KT 9999 -RA FEW025 BKN040 05/M05 Q1029 RMK 1CU025 7SC040 A3041
RJAH 220125Z 35004KT 320V020 9999 FEW030 BKN040 05/M05 Q1030 RMK 1CU030 7SC040 A3042
RJAH 220100Z 34004KT 9999 -RA FEW030 BKN050 04/M05 Q1030
RJAH 220000Z 36004KT 9999 FEW030 BKN050 02/M05 Q1030
RJAH 212300Z 34004KT 9999 FEW030 BKN050 01/M05 Q1030
RJAH 212200Z 02003KT 9999 FEW030 BKN050 M01/M05 Q1029
RJAH 212110Z 35002KT 9999 FEW030 BKN050 M02/M07 Q1029 RMK 1CU030 5SC050 A3041
RJAH 212100Z 36003KT 9999 FEW030 M03/M07 Q1029
RJAH 212000Z 34003KT 9999 FEW030 M03/M07 Q1028
RJAH 211900Z 35003KT 9999 FEW030 M02/M07 Q1028
RJAH 211800Z 01003KT 9999 FEW030 M03/M07 Q1028
RJAH 211700Z 36003KT 9999 FEW030 M02/M07 Q1028
RJAH 211600Z 36002KT 9999 FEW030 M05/M07 Q1027
RJAH 211500Z VRB02KT 9999 FEW030 M03/M08 Q1028
RJAH 211400Z 00000KT 9999 FEW030 M02/M07 Q1027
RJAH 211300Z 12002KT 9999 FEW030 00/M07 Q1026
RJAH 211200Z 16003KT 9999 FEW030 01/M07 Q1026
RJAH 211100Z VRB01KT 9999 FEW030 03/M08 Q1025
RJAH 211000Z 34003KT 9999 FEW030 03/M08 Q1024
RJAH 210900Z 36007KT 9999 FEW030 03/M08 Q1023
RJAH 210800Z 36009KT 9999 FEW030 07/M09 Q1022
RJAH 210700Z 36009KT 9999 FEW030 09/M09 Q1021
RJAH 210600Z 33006KT 270V360 9999 FEW030 10/M07 Q1020
RJAH 210500Z 01004KT 280V090 9999 FEW030 10/M07 Q1019
RJAH 210400Z 01008KT 320V050 9999 FEW030 10/M06 Q1019